createdAt,value
2023-07-30T09:15:50.651Z,20.11
2023-07-30T09:18:24.406Z,19.22
2023-07-30T09:21:13.564Z,19.49
2023-07-30T09:23:49.320Z,18.31
2023-07-30T09:26:22.979Z,19.26
2023-07-30T09:28:57.830Z,19.27
2023-07-30T09:31:54.847Z,19.50
2023-07-30T09:34:28.488Z,18.67
2023-07-30T09:37:19.345Z,18.82
2023-07-30T09:39:52.729Z,17.79
2023-07-30T09:42:30.173Z,17.71
2023-07-30T09:45:03.893Z,16.86
2023-07-30T09:47:39.206Z,18.85
2023-07-30T09:50:26.803Z,23.32
2023-07-30T09:53:03.252Z,23.60
2023-07-30T09:55:36.775Z,23.94
2023-07-30T09:58:11.643Z,24.33
2023-07-30T10:00:48.163Z,24.64
2023-07-30T10:03:37.544Z,25.33
2023-07-30T10:06:16.030Z,25.60
2023-07-30T10:08:49.951Z,26.52
2023-07-30T10:11:39.174Z,27.31
2023-07-30T10:14:13.374Z,25.13
2023-07-30T10:17:02.961Z,23.38
2023-07-30T10:19:36.327Z,21.88
2023-07-30T10:22:26.437Z,20.75
2023-07-30T10:25:15.632Z,20.78
2023-07-30T10:27:50.687Z,20.61
2023-07-30T10:30:38.192Z,21.90
2023-07-30T10:33:15.011Z,22.00
2023-07-30T10:35:49.691Z,21.54
2023-07-30T10:38:26.290Z,20.69
2023-07-30T10:41:17.542Z,21.13
2023-07-30T10:43:52.406Z,21.52
2023-07-30T10:46:27.047Z,19.96
2023-07-30T10:49:00.361Z,19.04
2023-07-30T10:51:47.718Z,18.74
2023-07-30T10:54:21.090Z,16.93
2023-07-30T10:57:09.239Z,18.13
2023-07-30T10:59:43.880Z,17.92
2023-07-30T11:02:19.062Z,17.39
2023-07-30T11:04:52.847Z,16.81
2023-07-30T11:07:40.236Z,17.01
2023-07-30T11:10:13.736Z,16.67
2023-07-30T11:12:48.031Z,16.54
2023-07-30T11:15:21.454Z,17.32
2023-07-30T11:18:08.884Z,20.52
2023-07-30T11:20:42.670Z,21.63
2023-07-30T11:23:29.975Z,23.80
2023-07-30T11:26:04.701Z,23.41
2023-07-30T11:28:52.031Z,23.13
2023-07-30T11:31:26.900Z,21.64
2023-07-30T11:34:00.335Z,21.88
2023-07-30T11:36:33.511Z,21.62
2023-07-30T11:39:21.222Z,24.08
2023-07-30T11:42:09.567Z,25.20
2023-07-30T11:47:49.237Z,24.80
2023-07-30T11:50:22.925Z,25.21
2023-07-30T11:53:10.368Z,23.85
2023-07-30T11:55:46.002Z,21.39
2023-07-30T11:58:33.405Z,20.84
2023-07-30T12:01:06.877Z,18.88
2023-07-30T12:03:42.552Z,20.18
2023-07-30T12:06:43.436Z,23.60
2023-07-30T12:09:16.135Z,24.97
2023-07-30T12:11:52.030Z,28.97
2023-07-30T12:14:30.220Z,26.52
2023-07-30T12:17:03.645Z,25.51
2023-07-30T12:19:38.284Z,24.66
2023-07-30T12:22:11.410Z,25.53
2023-07-30T12:24:58.774Z,24.66
2023-07-30T12:27:31.902Z,24.68
2023-07-30T12:30:05.565Z,26.46
2023-07-30T12:32:38.985Z,28.18
2023-07-30T12:35:12.361Z,27.69
2023-07-30T12:37:45.652Z,26.18
2023-07-30T12:40:19.449Z,27.00
2023-07-30T12:42:52.653Z,28.48
2023-07-30T12:45:40.512Z,29.21
2023-07-30T12:48:28.114Z,29.72
2023-07-30T12:51:01.332Z,29.78
2023-07-30T12:53:34.646Z,30.34
2023-07-30T12:56:21.873Z,30.76
2023-07-30T12:58:55.016Z,31.06
2023-07-30T13:01:45.156Z,30.40
2023-07-30T13:04:18.130Z,28.01
2023-07-30T13:07:05.827Z,25.71
2023-07-30T13:09:38.966Z,23.67
2023-07-30T13:12:12.637Z,22.31
2023-07-30T13:14:45.827Z,21.72
2023-07-30T13:17:19.126Z,21.30
2023-07-30T13:20:08.609Z,22.76
2023-07-30T13:22:55.949Z,23.86
2023-07-30T13:25:29.929Z,24.09
2023-07-30T13:28:03.374Z,25.41
2023-07-30T13:30:52.342Z,25.71
2023-07-30T13:33:39.908Z,24.49
2023-07-30T13:36:13.179Z,22.06
2023-07-30T13:38:46.603Z,21.95
2023-07-30T13:41:19.791Z,23.06
2023-07-30T13:43:53.004Z,22.27
2023-07-30T13:46:26.399Z,23.71
2023-07-30T13:48:59.664Z,26.05
2023-07-30T13:51:47.018Z,28.03
2023-07-30T13:54:21.644Z,28.69
2023-07-30T13:57:10.466Z,29.46
2023-07-30T13:59:57.878Z,30.16
2023-07-30T14:02:32.483Z,30.48
2023-07-30T14:05:20.480Z,30.18
2023-07-30T14:07:55.299Z,30.13
2023-07-30T14:10:28.661Z,28.45
2023-07-30T14:13:15.945Z,28.24
2023-07-30T14:15:49.205Z,27.95
2023-07-30T14:18:22.638Z,28.18
2023-07-30T14:21:10.042Z,29.51
2023-07-30T14:23:43.398Z,30.53
2023-07-30T14:26:30.783Z,31.67
2023-07-30T14:29:03.967Z,32.07
2023-07-30T14:31:40.250Z,31.75
2023-07-30T14:34:27.159Z,31.32
2023-07-30T14:37:00.591Z,30.07
2023-07-30T14:39:47.928Z,27.83
2023-07-30T14:42:21.413Z,25.63
2023-07-30T14:45:11.251Z,25.92
2023-07-30T14:47:48.086Z,24.79
2023-07-30T14:50:24.161Z,24.72
2023-07-30T14:53:11.477Z,25.84
2023-07-30T14:55:44.683Z,25.10
2023-07-30T14:58:32.306Z,26.24
2023-07-30T15:01:05.526Z,26.48
2023-07-30T15:03:38.897Z,27.36
2023-07-30T15:06:29.421Z,28.83
2023-07-30T15:09:03.451Z,29.08
2023-07-30T15:11:38.913Z,29.98
2023-07-30T15:14:12.195Z,30.58
2023-07-30T15:16:47.818Z,31.03
2023-07-30T15:19:23.248Z,31.87
2023-07-30T15:22:12.078Z,32.26
2023-07-30T15:24:45.561Z,32.49
2023-07-30T15:27:20.805Z,32.70
2023-07-30T15:29:56.505Z,31.35
2023-07-30T15:32:34.517Z,30.81
2023-07-30T15:35:11.882Z,30.47
2023-07-30T15:37:46.848Z,30.49
2023-07-30T15:40:36.414Z,31.32
2023-07-30T15:43:10.833Z,30.90
2023-07-30T15:46:03.904Z,31.12
2023-07-30T15:48:39.831Z,30.15
2023-07-30T15:51:30.724Z,30.16
2023-07-30T15:54:18.812Z,31.25
2023-07-30T15:56:53.094Z,30.40
2023-07-30T15:59:45.111Z,31.39
2023-07-30T16:02:19.668Z,31.24
2023-07-30T16:04:55.431Z,31.52
2023-07-30T16:07:28.736Z,32.03
2023-07-30T16:10:18.901Z,32.25
2023-07-30T16:12:52.637Z,32.24
2023-07-30T16:15:40.128Z,32.48
2023-07-30T16:18:13.380Z,32.76
2023-07-30T16:21:05.263Z,33.28
2023-07-30T16:23:40.825Z,33.80
2023-07-30T16:26:30.200Z,33.89
2023-07-30T16:29:12.512Z,34.53
2023-07-30T16:31:47.112Z,35.07
2023-07-30T16:34:23.088Z,34.79
2023-07-30T16:36:57.736Z,35.71
2023-07-30T16:39:33.821Z,35.99
2023-07-30T16:42:09.340Z,36.46
2023-07-30T16:44:51.382Z,36.36
2023-07-30T16:47:25.098Z,36.31
2023-07-30T16:49:58.408Z,37.02
2023-07-30T16:55:53.559Z,37.02
2023-07-30T16:58:28.293Z,37.55
2023-07-30T17:01:05.969Z,37.60
2023-07-30T17:03:58.301Z,36.98
2023-07-30T17:06:32.964Z,37.83
2023-07-30T17:09:23.228Z,37.11
2023-07-30T17:11:56.350Z,37.96
2023-07-30T17:14:43.650Z,37.61
2023-07-30T17:17:31.171Z,37.52
2023-07-30T17:20:06.844Z,39.09
2023-07-30T17:22:54.548Z,38.36
2023-07-30T17:25:27.730Z,38.69
2023-07-30T17:28:00.986Z,38.58
2023-07-30T17:30:36.312Z,39.21
2023-07-30T17:33:09.621Z,39.38
2023-07-30T17:35:43.002Z,39.48
2023-07-30T17:38:30.319Z,39.01
2023-07-30T17:41:18.519Z,38.63
2023-07-30T17:43:51.812Z,40.30
2023-07-30T17:46:25.084Z,40.31
2023-07-30T17:48:58.453Z,40.60
2023-07-30T17:51:46.978Z,39.43
2023-07-30T17:54:20.424Z,40.72
2023-07-30T17:57:09.138Z,39.77
2023-07-30T17:59:42.379Z,40.82
2023-07-30T18:02:29.766Z,39.82
2023-07-30T18:05:03.109Z,40.90
2023-07-30T18:07:52.760Z,39.66
2023-07-30T18:10:25.321Z,40.87
2023-07-30T18:13:12.754Z,40.12
2023-07-30T18:15:46.888Z,41.35
2023-07-30T18:18:34.425Z,40.16
2023-07-30T18:21:08.903Z,41.44
2023-07-30T18:23:43.103Z,41.59
2023-07-30T18:26:30.423Z,40.62
2023-07-30T18:29:03.829Z,41.78
2023-07-30T18:32:07.862Z,40.51
2023-07-30T18:34:41.406Z,41.83
2023-07-30T18:37:17.658Z,42.06
2023-07-30T18:39:50.919Z,42.36
2023-07-30T18:42:40.485Z,41.43
2023-07-30T18:45:14.813Z,42.64
2023-07-30T18:47:48.341Z,42.53
2023-07-30T18:50:35.658Z,41.67
2023-07-30T18:53:09.166Z,42.87
2023-07-30T18:55:43.334Z,42.70
2023-07-30T18:58:30.653Z,41.82
2023-07-30T19:01:03.912Z,42.99
2023-07-30T19:03:37.728Z,42.95
2023-07-30T19:06:11.004Z,43.05
2023-07-30T19:08:44.225Z,43.17
2023-07-30T19:11:18.074Z,43.56
2023-07-30T19:13:51.336Z,43.53
2023-07-30T19:16:40.093Z,42.65
2023-07-30T19:19:13.665Z,43.78
2023-07-30T19:21:48.982Z,44.02
2023-07-30T19:24:35.875Z,43.01
2023-07-30T19:27:29.627Z,43.07
2023-07-30T19:30:02.967Z,44.43
2023-07-30T19:32:37.727Z,44.62
2023-07-30T19:35:31.303Z,43.82
2023-07-30T19:38:14.477Z,44.10
2023-07-30T19:40:50.299Z,45.49
2023-07-30T19:43:24.175Z,45.49
2023-07-30T19:46:11.878Z,44.24
2023-07-30T19:48:45.629Z,45.54
2023-07-30T19:51:33.614Z,44.43
2023-07-30T19:54:06.927Z,45.59
2023-07-30T19:56:41.321Z,45.67
2023-07-30T19:59:14.692Z,46.06
2023-07-30T20:02:02.519Z,45.14
2023-07-30T20:04:35.807Z,46.29
2023-07-30T20:07:23.144Z,45.18
2023-07-30T20:09:56.320Z,46.67
2023-07-30T20:12:29.565Z,46.71
2023-07-30T20:15:17.160Z,45.53
2023-07-30T20:17:50.314Z,46.60
2023-07-30T20:20:37.646Z,45.53
2023-07-30T20:23:25.702Z,45.50
2023-07-30T20:26:01.087Z,46.72
2023-07-30T20:28:55.392Z,45.75
2023-07-30T20:31:43.586Z,45.72
2023-07-30T20:34:30.878Z,45.82
2023-07-30T20:37:04.102Z,46.83
2023-07-30T20:39:37.298Z,46.82
2023-07-30T20:42:10.702Z,46.80
2023-07-30T20:45:01.431Z,45.95
2023-07-30T20:47:35.033Z,47.00
2023-07-30T20:50:25.379Z,46.82
2023-07-30T20:52:58.569Z,47.39
2023-07-30T20:55:32.336Z,47.38
2023-07-30T20:58:21.530Z,46.29
2023-07-30T21:00:54.876Z,47.37
2023-07-30T21:03:28.544Z,47.59
2023-07-30T21:06:15.929Z,46.71
2023-07-30T21:08:49.120Z,47.85
2023-07-30T21:11:22.574Z,48.24
2023-07-30T21:14:09.891Z,47.18
2023-07-30T21:16:43.171Z,48.42
2023-07-30T21:19:30.417Z,47.44
2023-07-30T21:22:03.572Z,48.51
2023-07-30T21:24:53.945Z,47.39
2023-07-30T21:27:28.530Z,48.58
2023-07-30T21:30:17.466Z,47.32
2023-07-30T21:32:50.735Z,48.58
2023-07-30T21:35:24.117Z,48.67
2023-07-30T21:37:59.440Z,48.94
2023-07-30T21:40:32.695Z,49.39
2023-07-30T21:43:05.937Z,49.51
2023-07-30T21:45:39.122Z,49.82
2023-07-30T21:48:27.138Z,48.98
2023-07-30T21:51:04.252Z,50.12
2023-07-30T21:53:37.555Z,50.17
2023-07-30T21:56:11.037Z,50.30
2023-07-30T21:58:59.352Z,49.47
2023-07-30T22:01:32.602Z,50.69
2023-07-30T22:04:20.029Z,49.97
2023-07-30T22:07:07.876Z,50.08
2023-07-30T22:09:41.957Z,50.92
2023-07-30T22:12:29.373Z,50.11
2023-07-30T22:15:02.692Z,51.40
2023-07-30T22:17:36.376Z,51.71
2023-07-30T22:20:25.958Z,51.06
2023-07-30T22:22:59.772Z,51.89
2023-07-30T22:25:47.187Z,50.99
2023-07-30T22:28:20.492Z,51.95
2023-07-30T22:30:55.812Z,52.03
2023-07-30T22:33:29.434Z,51.93
2023-07-30T22:36:16.825Z,50.89
2023-07-30T22:38:50.217Z,51.71
2023-07-30T22:41:37.587Z,50.64
2023-07-30T22:44:11.082Z,51.54
2023-07-30T22:46:58.406Z,50.44
2023-07-30T22:49:45.635Z,50.48
2023-07-30T22:52:20.386Z,51.85
2023-07-30T22:55:12.481Z,50.62
2023-07-30T22:57:45.689Z,52.26
2023-07-30T23:00:18.993Z,52.75
2023-07-30T23:02:52.390Z,53.07
2023-07-30T23:05:40.712Z,52.49
2023-07-30T23:08:28.077Z,52.86
2023-07-30T23:11:01.251Z,53.73
2023-07-30T23:13:34.664Z,53.61
2023-07-30T23:16:08.103Z,53.55
2023-07-30T23:18:42.474Z,53.44
2023-07-30T23:21:29.812Z,52.74
2023-07-30T23:24:03.828Z,53.47
2023-07-30T23:26:51.176Z,52.68
2023-07-30T23:29:24.445Z,53.64
2023-07-30T23:32:11.846Z,53.24
2023-07-30T23:34:45.125Z,54.10
2023-07-30T23:37:18.456Z,54.04
2023-07-30T23:40:06.903Z,53.34
2023-07-30T23:42:41.536Z,54.23
2023-07-30T23:45:28.887Z,53.51
2023-07-30T23:48:02.173Z,54.19
2023-07-30T23:51:04.132Z,53.72
2023-07-30T23:53:24.898Z,54.25
2023-07-30T23:55:58.144Z,54.14
2023-07-30T23:58:31.344Z,54.37
